EDT,Max TemperatureF,Mean TemperatureF,Min TemperatureF,Max Dew PointF,MeanDew PointF,Min DewpointF,Max Humidity, Mean Humidity, Min Humidity, Max Sea Level PressureIn, Mean Sea Level PressureIn, Min Sea Level PressureIn, Max VisibilityMiles, Mean VisibilityMiles, Min VisibilityMiles, Max Wind SpeedMPH, Mean Wind SpeedMPH, Max Gust SpeedMPH,PrecipitationIn, CloudCover, Events, WindDirDegrees
2011-10-1,62,55,48,45,39,34,67,53,37,29.95,29.86,29.79,10,10,10,10,5,21,0.00,1,,325
2011-10-2,62,52,42,39,36,30,81,59,34,30.05,29.99,29.95,10,10,10,13,5,23,0.00,1,,299
2011-10-3,68,52,37,43,36,32,87,57,33,30.11,30.08,30.04,10,10,10,9,4,20,0.00,0,,282
2011-10-4,71,56,42,50,44,39,87,64,41,30.25,30.19,30.16,10,10,7,9,1,16,0.00,0,,351
2011-10-5,75,60,46,52,48,45,93,69,38,30.28,30.23,30.17,10,10,7,6,1,,0.00,0,,24
2011-10-6,75,60,46,54,48,43,93,69,41,30.34,30.29,30.24,10,9,3,15,3,17,0.00,0,,63
2011-10-7,73,57,41,50,45,37,93,70,33,30.43,30.39,30.35,10,9,2,12,2,16,0.00,0,,72
2011-10-8,73,58,42,52,45,37,93,66,33,30.50,30.44,30.39,10,10,5,15,3,18,0.00,0,,66
2011-10-9,75,64,53,57,53,48,88,69,50,30.41,30.37,30.28,10,10,10,17,7,22,0.00,1,,59
2011-10-10,69,64,60,59,52,45,73,63,52,30.29,30.18,30.09,10,10,10,13,7,16,0.00,3,,52
2011-10-11,64,62,59,61,57,55,94,85,73,30.08,30.01,29.92,10,9,3,16,8,24,0.36,8,,57
2011-10-12,75,68,62,66,63,59,94,87,73,29.92,29.83,29.77,10,6,0,6,2,,0.00,7,,77
2011-10-13,77,70,64,66,64,61,94,82,61,29.77,29.71,29.62,10,9,0,17,4,23,0.00,7,,208
2011-10-14,73,66,59,57,51,41,88,64,31,29.72,29.67,29.61,10,10,10,14,10,25,0.01,5,,259
2011-10-15,75,64,53,48,42,34,72,50,23,29.98,29.93,29.86,10,10,10,14,6,21,0.00,0,,270
2011-10-16,78,60,42,46,40,36,76,51,26,30.15,30.07,29.99,10,10,7,15,3,17,0.00,0,,231
2011-10-17,86,72,57,52,48,45,67,48,28,29.99,29.92,29.85,10,10,10,16,11,20,0.00,0,,230
2011-10-18,80,70,59,64,57,54,88,67,45,29.89,29.83,29.74,10,10,10,13,8,17,0.04,1,,211
2011-10-19,66,63,60,64,59,54,94,89,77,29.65,29.45,29.33,10,8,3,18,7,31,0.46,8,,85
2011-10-20,59,52,44,41,39,37,81,64,48,29.89,29.73,29.55,10,10,10,21,13,30,0.00,1,,239
2011-10-21,64,50,35,43,39,34,93,66,40,30.09,30.04,29.97,10,10,8,9,3,,0.00,0,,269
2011-10-22,64,50,37,46,41,36,93,72,45,30.16,30.11,30.07,10,10,8,8,1,,0.00,2,,39
2011-10-23,66,50,35,48,41,34,93,73,45,30.17,30.11,30.07,10,8,3,7,1,,0.00,0,,75
2011-10-24,71,55,39,52,44,36,93,70,41,30.14,30.09,30.03,10,9,2,7,1,,0.00,0,,339
2011-10-25,69,56,42,46,43,39,87,62,33,30.27,30.20,30.11,10,10,4,10,3,,0.00,0,,11
2011-10-26,75,60,44,52,47,37,87,64,38,30.17,30.07,29.94,10,10,10,16,7,23,0.00,0,,236
2011-10-27,78,66,53,54,50,46,77,59,41,29.94,29.86,29.78,10,10,10,17,10,26,0.00,0,,240
2011-10-28,62,54,46,52,40,34,77,59,50,30.11,30.04,29.89,10,10,10,18,8,26,0.00,6,,57
2011-10-29,53,46,39,41,38,32,93,78,47,30.05,29.96,29.91,10,9,4,10,5,18,0.23,6,,359
2011-10-30,57,42,28,36,30,25,93,67,36,30.31,30.24,30.13,10,10,10,12,1,16,0.00,0,,46
2011-10-31,53,42,32,43,36,28,93,79,54,30.34,30.27,30.18,10,10,4,7,1,,0.07,5,,52